Harewood, Australia

1:27 PM AWST on June 22, 2018 (GMT +0800)
Mt Shadforth | | Change Station

Elev 751 ft 34.97 °S, 117.29 °E | Updated 3 seconds ago

Mostly Cloudy
Mostly Cloudy
59 °F
Feels Like 59 °F
N
2
Wind Variable Wind from South
Gusts 2.5 mph

Today
High -- | Low -- °F
--% Chance of Precip.
Yesterday
High -- | Low -- °F
Precip. -- in
Pressure 30.39 in
Visibility 3.7 miles
Clouds Scattered Clouds 1000 ft
Mostly Cloudy 1600 ft
Mostly Cloudy 2300 ft
Dew Point 54 °F
Humidity 85%
Rainfall 0.07 in
Snow Depth Not available.
7:18 AM 5:07 PM
Waxing Gibbous, 69% visible
SPECI YABA 220417Z AUTO 18007KT 6000 // SCT010 BKN016 BKN023 15/13 Q1029
Pressure 30.39 in
Visibility 3.7 miles
Clouds Scattered Clouds 1000 ft
Mostly Cloudy 1600 ft
Mostly Cloudy 2300 ft
Dew Point 54 °F
Humidity 85%
Rainfall 0.07 in
Snow Depth Not available.
7:18 AM 5:07 PM
Waxing Gibbous, 69% visible
SPECI YABA 220417Z AUTO 18007KT 6000 // SCT010 BKN016 BKN023 15/13 Q1029

Get Severe Weather Alerts

Thanks for signing up!

Be on the lookout for a verification email in your inbox.

You'll start receiving the daily forecast at 6 AM.

×

10-Day Weather Forecast

×

Almanac

Astronomy

Jun. 22, 2018 Rise Set
Actual Time
Civil Twilight
Nautical Twilight
Astronomical Twilight
Moon
Length of Visible Light
Length of Day
Tomorrow will be .
, % of the Moon is Illuminated

Today's Extremes

Country Highs Country Lows

Community

WunderPhotos

Category 6

Welcome to Category 6. This is the collective home for Weather Underground's featured writeups by Dr. Jeff Masters (right), Bob Henson (left), Chris Burt, and other regular contributors.

Nearby

Air Quality

  Air Quality AQ Index Pollutant
Not available.

Snow Depth

Station Depth Elevation

Earthquake Activity

City Distance Mag. Time & Date
Minimum magnitude displayed is 2.5.

Coastal Water Temperatures

Place Temperature

Stations

Nearby Weather Stations

Station Location Temp. Windchill Dew Point Humidity Wind Precip. Elev Updated Type